Time;durP1;ratioP1;P1;durP2;ratioP2;P2;SDS_P1;SDS_P2;PMS_P1;PMS_P2;Temp;Humidity;BMP_temperature;BMP_pressure;BME280_temperature;BME280_humidity;BME280_pressure;Samples;Min_cycle;Max_cycle;Signal;HPM_P1;HPM_P2
2023/06/20 00:00:47;;;;;;;493.33;470.02;;;17.30;74.90;;;;;;5036430;28;20355;-90
2023/06/20 00:03:13;;;;;;;454.00;432.80;;;17.10;75.10;;;;;;5036664;28;20035;-91
2023/06/20 00:05:39;;;;;;;481.40;458.90;;;17.20;75.30;;;;;;5037419;28;20029;-89
2023/06/20 00:08:05;;;;;;;519.80;493.77;;;17.30;76.00;;;;;;5022492;28;20400;-90
2023/06/20 00:10:30;;;;;;;559.67;531.75;;;17.30;75.60;;;;;;5032979;28;20611;-90
2023/06/20 00:12:56;;;;;;;547.90;520.75;;;17.30;75.70;;;;;;5023053;28;20029;-90
2023/06/20 00:15:25;;;;;;;499.15;475.05;;;17.30;75.80;;;;;;5023571;28;20036;-91
2023/06/20 00:17:52;;;;;;;503.45;479.10;;;17.30;75.90;;;;;;5028596;28;20036;-91
2023/06/20 00:20:18;;;;;;;470.73;449.02;;;17.50;75.30;;;;;;5022578;28;20111;-91
2023/06/20 00:22:44;;;;;;;434.83;415.70;;;17.50;75.00;;;;;;5037061;28;20030;-90
2023/06/20 00:25:10;;;;;;;449.38;428.30;;;17.50;75.20;;;;;;5041128;28;20080;-91
2023/06/20 00:27:36;;;;;;;421.02;401.70;;;17.50;74.80;;;;;;5030552;28;20438;-91
2023/06/20 00:30:02;;;;;;;496.60;472.27;;;17.50;74.90;;;;;;5026585;28;20025;-91
2023/06/20 00:32:27;;;;;;;533.63;507.77;;;17.40;75.50;;;;;;5021068;28;20124;-91
2023/06/20 00:34:54;;;;;;;548.92;520.75;;;17.50;76.10;;;;;;5022419;28;20576;-91
2023/06/20 00:37:20;;;;;;;626.92;591.72;;;17.70;76.00;;;;;;5041951;28;20401;-90
2023/06/20 00:39:46;;;;;;;548.40;517.95;;;17.60;76.80;;;;;;5037746;28;20543;-90
2023/06/20 00:42:25;;;;;;;774.22;721.60;;;17.50;78.00;;;;;;5031555;28;20115;-91
2023/06/20 00:44:51;;;;;;;752.70;701.10;;;17.40;79.60;;;;;;5038608;28;20287;-90
2023/06/20 00:47:18;;;;;;;625.88;580.13;;;17.40;80.90;;;;;;5033437;28;20515;-90
2023/06/20 00:49:49;;;;;;;558.05;525.25;;;17.40;80.90;;;;;;5037489;28;20327;-89
2023/06/20 00:52:16;;;;;;;661.72;613.42;;;17.40;80.90;;;;;;5040308;28;20036;-92
2023/06/20 00:54:44;;;;;;;751.97;701.00;;;17.50;81.40;;;;;;5039574;28;20310;-93
2023/06/20 00:57:13;;;;;;;655.80;614.17;;;17.50;82.00;;;;;;5037845;28;20544;-91
2023/06/20 00:59:43;;;;;;;625.45;584.72;;;17.40;82.30;;;;;;5013777;28;20040;-92
2023/06/20 01:02:10;;;;;;;539.67;508.70;;;17.40;84.00;;;;;;5035259;28;20039;-92
2023/06/20 01:04:39;;;;;;;470.92;443.85;;;17.40;84.50;;;;;;5039816;28;20037;-93
2023/06/20 01:07:29;;;;;;;383.95;362.38;;;17.40;84.50;;;;;;5036760;28;20056;-93
2023/06/20 01:10:11;;;;;;;357.17;340.33;;;17.50;85.10;;;;;;5044141;28;20518;-90
2023/06/20 01:12:44;;;;;;;326.20;310.00;;;17.50;85.20;;;;;;5044424;28;20033;-89
2023/06/20 01:15:19;;;;;;;417.15;393.02;;;17.60;84.80;;;;;;5025047;28;20040;-93
2023/06/20 01:17:47;;;;;;;812.15;757.65;;;17.70;84.80;;;;;;5039809;28;20095;-95
2023/06/20 01:20:21;;;;;;;786.28;731.90;;;17.80;83.90;;;;;;5025740;28;20092;-94
2023/06/20 01:22:59;;;;;;;493.30;454.25;;;17.90;83.70;;;;;;5037973;28;20030;-91
2023/06/20 01:25:37;;;;;;;485.38;445.88;;;17.90;84.00;;;;;;5044976;28;20060;-91
2023/06/20 01:28:12;;;;;;;283.48;262.25;;;17.70;85.60;;;;;;5029424;28;20021;-95
2023/06/20 01:30:48;;;;;;;305.30;285.85;;;17.60;88.30;;;;;;5033853;28;20485;-92
2023/06/20 01:33:17;;;;;;;178.55;170.38;;;17.50;90.40;;;;;;5031343;28;20087;-92
2023/06/20 01:35:46;;;;;;;512.55;461.23;;;22.30;99.90;;;;;;5037101;28;20025;-94
2023/06/20 01:38:13;;;;;;;557.65;521.47;;;22.20;99.90;;;;;;5031505;28;20167;-90
2023/06/20 01:40:41;;;;;;;447.98;426.52;;;20.70;99.90;;;;;;5031894;28;20033;-92
2023/06/20 01:43:08;;;;;;;558.67;526.17;;;20.00;99.90;;;;;;5035713;28;20056;-93
2023/06/20 01:45:39;;;;;;;581.03;546.42;;;20.30;99.90;;;;;;5033762;28;20535;-95
2023/06/20 01:48:06;;;;;;;754.70;705.05;;;20.50;99.90;;;;;;5029609;28;20152;-96
2023/06/20 01:50:33;;;;;;;775.83;721.17;;;19.40;99.90;;;;;;5030771;28;20036;-96
2023/06/20 01:53:00;;;;;;;892.75;831.67;;;19.20;99.90;;;;;;5024228;28;20030;-94
2023/06/20 01:55:28;;;;;;;893.58;829.22;;;19.30;99.90;;;;;;5045250;28;20306;-95
2023/06/20 01:57:58;;;;;;;1149.65;851.85;;;19.90;99.90;;;;;;5023061;28;20025;-92
2023/06/20 02:00:26;;;;;;;735.03;683.67;;;19.50;99.90;;;;;;5045397;28;20034;-96
2023/06/20 02:02:56;;;;;;;823.22;763.58;;;19.40;99.90;;;;;;5036396;28;20060;-96
2023/06/20 02:05:23;;;;;;;433.70;403.87;;;18.90;99.90;;;;;;5025691;28;20025;-94
2023/06/20 02:07:52;;;;;;;708.20;659.30;;;18.70;99.90;;;;;;5021088;28;20060;-91
2023/06/20 02:10:21;;;;;;;605.15;556.78;;;18.00;99.90;;;;;;5022988;28;20025;-93
2023/06/20 02:12:49;;;;;;;537.58;504.08;;;18.10;99.90;;;;;;5035402;28;20033;-92
2023/06/20 02:15:16;;;;;;;796.97;739.97;;;18.40;99.90;;;;;;5034596;28;20026;-93
2023/06/20 02:17:44;;;;;;;795.40;737.90;;;18.30;99.90;;;;;;5053848;28;20029;-95
2023/06/20 02:20:10;;;;;;;817.08;759.28;;;18.50;99.90;;;;;;5032945;28;20026;-93
2023/06/20 02:22:37;;;;;;;927.15;857.75;;;18.80;99.90;;;;;;5019715;28;20041;-93
2023/06/20 02:25:10;;;;;;;933.83;865.95;;;19.00;99.90;;;;;;5037091;28;20128;-93
2023/06/20 02:27:39;;;;;;;928.53;860.65;;;19.10;99.90;;;;;;5019392;28;20161;-92
2023/06/20 02:30:09;;;;;;;895.28;831.95;;;18.50;99.90;;;;;;5020390;28;20179;-93
2023/06/20 02:32:36;;;;;;;958.33;890.40;;;18.40;99.90;;;;;;5015914;28;20115;-95
2023/06/20 02:35:04;;;;;;;901.08;836.33;;;19.20;99.90;;;;;;5048895;28;20033;-93
2023/06/20 02:37:33;;;;;;;964.92;893.20;;;18.60;99.90;;;;;;5017474;28;20036;-93
2023/06/20 02:39:58;;;;;;;987.15;914.80;;;18.70;99.90;;;;;;5032096;28;20029;-94
2023/06/20 02:42:24;;;;;;;951.92;879.15;;;19.10;99.90;;;;;;5026548;28;20060;-95
2023/06/20 02:44:50;;;;;;;1481.07;943.22;;;18.70;99.90;;;;;;5026813;28;20041;-92
2023/06/20 02:47:39;;;;;;;985.30;912.15;;;19.10;99.90;;;;;;5043237;28;20090;-93
2023/06/20 02:50:13;;;;;;;972.58;901.53;;;18.60;99.90;;;;;;5037300;28;20536;-94
2023/06/20 02:52:49;;;;;;;947.17;878.20;;;19.10;99.90;;;;;;5043182;28;20026;-93
2023/06/20 02:55:27;;;;;;;966.17;894.33;;;19.20;99.90;;;;;;5037633;28;20025;-93
2023/06/20 02:58:00;;;;;;;963.80;890.42;;;19.20;99.90;;;;;;5037522;28;20556;-94
2023/06/20 03:00:26;;;;;;;960.50;886.28;;;18.50;99.90;;;;;;5016897;28;20033;-93
2023/06/20 03:02:59;;;;;;;961.70;889.88;;;19.10;99.90;;;;;;5016769;28;20120;-93
2023/06/20 03:05:28;;;;;;;989.80;913.83;;;18.70;99.90;;;;;;5039898;28;21389;-94
2023/06/20 03:07:55;;;;;;;1000.63;922.83;;;19.20;99.90;;;;;;5014884;28;20030;-94
2023/06/20 03:10:23;;;;;;;972.38;898.83;;;19.20;99.90;;;;;;5025652;28;20029;-95
2023/06/20 03:12:48;;;;;;;975.88;900.10;;;19.00;99.90;;;;;;5020091;28;20511;-95
2023/06/20 03:15:14;;;;;;;972.25;896.45;;;18.70;99.90;;;;;;5045804;28;20025;-94
2023/06/20 03:17:40;;;;;;;1006.00;927.38;;;19.20;99.90;;;;;;5032179;28;20103;-94
2023/06/20 03:20:08;;;;;;;968.80;895.42;;;18.80;99.90;;;;;;5036747;28;20029;-94
2023/06/20 03:22:34;;;;;;;989.65;915.58;;;19.20;99.90;;;;;;5009210;28;20044;-94
2023/06/20 03:24:59;;;;;;;818.75;762.40;;;19.00;99.90;;;;;;5038021;28;20033;-93
2023/06/20 03:27:25;;;;;;;954.75;883.55;;;18.70;99.90;;;;;;5020928;28;20053;-94
2023/06/20 03:29:50;;;;;;;941.80;869.30;;;18.70;99.90;;;;;;5031996;28;20029;-94
2023/06/20 03:32:16;;;;;;;984.83;909.22;;;19.20;99.90;;;;;;5038470;28;20072;-94
2023/06/20 03:34:42;;;;;;;972.30;901.10;;;18.70;99.90;;;;;;5023108;28;20114;-94
2023/06/20 03:37:07;;;;;;;929.13;860.75;;;18.80;99.90;;;;;;5020263;28;20048;-95
2023/06/20 03:39:33;;;;;;;983.25;906.85;;;18.80;99.90;;;;;;5022915;28;20029;-93
2023/06/20 03:41:59;;;;;;;927.90;856.78;;;19.20;99.90;;;;;;5024191;28;20029;-96
2023/06/20 03:44:24;;;;;;;952.95;882.42;;;19.20;99.90;;;;;;5016598;28;20385;-94
2023/06/20 03:46:50;;;;;;;990.33;912.85;;;19.20;99.90;;;;;;5016790;28;20029;-95
2023/06/20 03:49:15;;;;;;;983.35;908.50;;;19.20;99.90;;;;;;5019959;28;20056;-94
2023/06/20 03:51:41;;;;;;;970.85;897.70;;;18.90;99.90;;;;;;5016280;28;20034;-94
2023/06/20 03:54:07;;;;;;;986.65;912.00;;;18.80;99.90;;;;;;5022399;28;20038;-94
2023/06/20 03:56:32;;;;;;;938.83;868.78;;;18.80;99.90;;;;;;5015570;28;20033;-96
2023/06/20 03:58:58;;;;;;;792.75;729.45;;;18.90;99.90;;;;;;5016509;28;20079;-95
2023/06/20 04:01:24;;;;;;;1009.70;932.35;;;18.90;99.90;;;;;;5016766;28;20059;-94
2023/06/20 04:03:52;;;;;;;998.28;922.95;;;19.30;99.90;;;;;;5020548;28;20033;-94
2023/06/20 04:06:18;;;;;;;987.72;912.75;;;19.10;99.90;;;;;;5032178;28;20064;-95
2023/06/20 04:08:45;;;;;;;822.72;766.83;;;19.20;99.90;;;;;;5027029;28;20168;-94
2023/06/20 04:11:11;;;;;;;1006.30;930.72;;;19.00;99.90;;;;;;5035173;28;20034;-93
2023/06/20 04:13:36;;;;;;;938.83;868.95;;;19.00;99.90;;;;;;5028359;28;20034;-94
2023/06/20 04:16:02;;;;;;;956.58;885.28;;;18.70;99.90;;;;;;5023354;28;20025;-94
2023/06/20 04:18:28;;;;;;;985.42;911.67;;;19.00;99.90;;;;;;5017494;28;20097;-93
2023/06/20 04:20:53;;;;;;;973.67;899.60;;;18.80;99.90;;;;;;5018846;28;20605;-96
2023/06/20 04:23:19;;;;;;;970.88;899.60;;;18.80;99.90;;;;;;5019103;28;20033;-93
2023/06/20 04:25:45;;;;;;;966.15;893.53;;;18.90;99.90;;;;;;5015382;28;20029;-96
2023/06/20 04:28:10;;;;;;;967.42;896.17;;;18.80;99.90;;;;;;5017995;28;20021;-94
2023/06/20 04:30:36;;;;;;;948.03;878.20;;;18.80;99.90;;;;;;5024907;28;20063;-94
2023/06/20 04:33:02;;;;;;;816.30;760.10;;;19.20;99.90;;;;;;5043137;28;20080;-94
2023/06/20 04:35:27;;;;;;;1001.63;926.83;;;18.80;99.90;;;;;;5020307;28;20030;-94
2023/06/20 04:37:53;;;;;;;975.90;904.55;;;19.10;99.90;;;;;;5034944;28;20056;-93
2023/06/20 04:40:19;;;;;;;960.75;890.72;;;19.40;99.90;;;;;;5036303;28;20444;-94
2023/06/20 04:42:45;;;;;;;962.88;890.88;;;19.30;99.90;;;;;;5046999;28;20033;-85
2023/06/20 04:45:11;;;;;;;955.15;885.97;;;19.40;99.90;;;;;;5034943;28;20140;-88
2023/06/20 04:47:37;;;;;;;964.65;893.85;;;19.20;99.90;;;;;;5035091;28;20044;-87
2023/06/20 04:50:03;;;;;;;985.95;914.72;;;19.00;99.90;;;;;;5023508;28;20039;-88
2023/06/20 04:52:32;;;;;;;973.03;900.72;;;19.40;99.90;;;;;;5035851;28;20822;-87
2023/06/20 04:55:02;;;;;;;989.75;916.53;;;19.10;99.90;;;;;;5038318;28;20032;-87
2023/06/20 04:57:32;;;;;;;962.58;890.92;;;19.20;99.90;;;;;;5038200;28;20037;-88
2023/06/20 04:59:57;;;;;;;935.03;868.13;;;19.60;99.90;;;;;;5017187;28;20049;-87
2023/06/20 05:02:23;;;;;;;945.17;875.55;;;19.50;99.90;;;;;;5042614;28;20034;-88
2023/06/20 05:04:49;;;;;;;956.63;887.67;;;19.40;99.90;;;;;;5034334;28;20542;-88
2023/06/20 05:07:16;;;;;;;980.33;905.78;;;19.40;99.90;;;;;;5039686;28;20132;-87
2023/06/20 05:09:41;;;;;;;995.30;921.45;;;19.90;99.90;;;;;;5042468;28;20493;-87
2023/06/20 05:12:07;;;;;;;939.53;870.13;;;19.60;99.90;;;;;;5035116;28;20041;-86
2023/06/20 05:14:33;;;;;;;949.83;878.88;;;19.80;99.90;;;;;;5036655;28;20029;-87
2023/06/20 05:16:58;;;;;;;963.30;892.33;;;20.00;99.90;;;;;;5039599;28;20111;-88
2023/06/20 05:19:24;;;;;;;975.38;902.03;;;19.70;99.90;;;;;;5016553;28;20080;-83
2023/06/20 05:21:50;;;;;;;964.30;893.75;;;19.70;99.90;;;;;;5033181;28;20054;-84
2023/06/20 05:24:15;;;;;;;961.15;889.97;;;19.90;99.90;;;;;;5037726;28;20037;-81
2023/06/20 05:26:41;;;;;;;996.15;919.25;;;19.50;99.90;;;;;;5039711;28;20041;-82
2023/06/20 05:29:07;;;;;;;991.47;913.10;;;19.80;99.90;;;;;;5040245;28;20035;-89
2023/06/20 05:31:33;;;;;;;927.92;860.72;;;19.60;99.90;;;;;;5031896;28;20547;-81
2023/06/20 05:33:59;;;;;;;996.78;921.58;;;19.90;99.90;;;;;;5025992;28;20120;-78
2023/06/20 05:36:24;;;;;;;972.97;899.17;;;20.10;99.90;;;;;;5037141;28;20120;-80
2023/06/20 05:38:50;;;;;;;967.50;897.42;;;20.30;99.90;;;;;;5015672;28;20029;-80
2023/06/20 05:41:16;;;;;;;983.95;910.40;;;20.30;99.90;;;;;;5034953;28;20042;-82
2023/06/20 05:43:42;;;;;;;986.00;913.13;;;20.50;99.90;;;;;;5033587;28;20036;-82
2023/06/20 05:46:08;;;;;;;968.28;896.40;;;20.50;99.90;;;;;;5037411;28;20029;-82
2023/06/20 05:48:34;;;;;;;945.28;874.65;;;20.50;99.90;;;;;;5034178;28;20025;-82
2023/06/20 05:51:00;;;;;;;859.17;796.13;;;20.50;99.90;;;;;;5014443;28;20029;-81
2023/06/20 05:53:29;;;;;;;956.13;883.60;;;20.20;99.90;;;;;;5018647;28;20068;-83
2023/06/20 05:55:55;;;;;;;959.85;888.08;;;20.10;99.90;;;;;;5036556;28;20033;-85
2023/06/20 05:58:20;;;;;;;938.33;867.97;;;20.20;99.90;;;;;;5032907;28;20128;-82
2023/06/20 06:00:46;;;;;;;956.90;885.33;;;20.30;99.90;;;;;;5035544;28;20258;-82
2023/06/20 06:03:13;;;;;;;993.15;919.28;;;20.30;99.90;;;;;;5010973;28;20305;-82
2023/06/20 06:05:39;;;;;;;884.55;820.53;;;20.50;99.90;;;;;;5036491;28;20033;-81
2023/06/20 06:08:05;;;;;;;982.33;908.67;;;20.20;99.90;;;;;;5031109;28;20030;-82
2023/06/20 06:10:32;;;;;;;934.38;865.45;;;20.40;99.90;;;;;;5034972;28;20029;-82
2023/06/20 06:12:58;;;;;;;907.55;842.60;;;20.40;99.90;;;;;;5037712;28;20025;-84
2023/06/20 06:15:23;;;;;;;885.47;821.05;;;20.40;99.90;;;;;;5034404;28;20370;-82
2023/06/20 06:17:49;;;;;;;892.67;829.85;;;20.30;99.90;;;;;;5011158;28;20030;-83
2023/06/20 06:20:18;;;;;;;847.63;790.30;;;20.20;99.90;;;;;;5035726;28;20037;-80
2023/06/20 06:22:43;;;;;;;892.00;828.90;;;20.20;99.90;;;;;;5029246;28;20033;-81
2023/06/20 06:25:09;;;;;;;810.33;754.67;;;20.40;99.90;;;;;;5037725;28;20139;-90
2023/06/20 06:27:35;;;;;;;838.42;782.42;;;20.50;99.90;;;;;;5032365;28;20037;-78
2023/06/20 06:30:03;;;;;;;939.17;870.13;;;20.50;99.90;;;;;;5031122;28;20056;-78
2023/06/20 06:32:28;;;;;;;894.38;833.33;;;20.80;99.90;;;;;;5039071;28;20084;-78
2023/06/20 06:34:59;;;;;;;859.90;800.63;;;20.90;99.90;;;;;;5034985;28;20520;-80
2023/06/20 06:37:26;;;;;;;785.92;736.72;;;20.90;99.90;;;;;;5032532;28;20041;-79
2023/06/20 06:39:54;;;;;;;890.30;827.65;;;21.00;99.90;;;;;;5035475;28;20073;-85
2023/06/20 06:42:19;;;;;;;787.92;739.17;;;21.00;99.90;;;;;;5031550;28;20124;-80
2023/06/20 06:44:45;;;;;;;747.08;703.40;;;21.10;99.90;;;;;;5031605;28;20172;-78
2023/06/20 06:47:11;;;;;;;753.15;708.88;;;21.00;99.90;;;;;;5030886;28;20029;-79
2023/06/20 06:49:36;;;;;;;624.60;592.03;;;21.00;99.90;;;;;;5037057;28;20301;-82
2023/06/20 06:52:02;;;;;;;592.30;561.72;;;20.80;99.90;;;;;;5031699;28;20029;-77
2023/06/20 06:54:28;;;;;;;511.50;486.58;;;20.70;99.90;;;;;;5037248;28;20036;-79
2023/06/20 06:56:54;;;;;;;525.55;499.45;;;20.80;99.90;;;;;;5028022;28;20237;-80
2023/06/20 06:59:19;;;;;;;498.65;474.42;;;20.80;99.90;;;;;;5023411;28;20405;-79
2023/06/20 07:01:45;;;;;;;586.38;555.78;;;20.80;99.90;;;;;;5028318;28;20121;-80
2023/06/20 07:04:11;;;;;;;559.17;532.20;;;20.80;99.90;;;;;;5029152;28;20117;-77
2023/06/20 07:06:36;;;;;;;581.53;551.75;;;20.80;99.90;;;;;;5028569;28;20455;-77
2023/06/20 07:09:02;;;;;;;623.38;592.28;;;20.90;99.90;;;;;;5029224;28;20032;-78
2023/06/20 07:11:28;;;;;;;647.67;614.00;;;20.90;99.90;;;;;;5028121;28;20052;-77
2023/06/20 07:13:53;;;;;;;694.67;654.42;;;20.90;99.90;;;;;;5029890;28;20033;-79
2023/06/20 07:16:19;;;;;;;580.53;553.10;;;20.90;99.90;;;;;;5012596;28;20410;-81
2023/06/20 07:18:44;;;;;;;645.00;610.00;;;21.10;99.90;;;;;;5033777;28;20042;-79
2023/06/20 07:21:10;;;;;;;643.03;609.60;;;21.20;99.90;;;;;;5012993;28;20081;-78
2023/06/20 07:23:36;;;;;;;660.90;624.08;;;21.10;99.90;;;;;;5032397;28;20056;-79
2023/06/20 07:26:01;;;;;;;726.33;684.15;;;21.40;99.90;;;;;;5035923;28;20769;-80
2023/06/20 07:28:28;;;;;;;736.25;693.83;;;21.20;99.90;;;;;;5012375;28;20044;-80
2023/06/20 07:30:54;;;;;;;664.42;627.85;;;21.20;99.90;;;;;;5026022;28;20583;-79
2023/06/20 07:33:20;;;;;;;712.67;672.17;;;21.20;99.90;;;;;;5034030;28;20033;-78
2023/06/20 07:35:46;;;;;;;757.08;713.40;;;21.20;99.90;;;;;;5029012;28;20815;-79
2023/06/20 07:38:11;;;;;;;736.08;693.60;;;21.30;99.90;;;;;;5033666;28;20018;-79
2023/06/20 07:40:40;;;;;;;810.00;760.20;;;21.50;99.90;;;;;;5032728;28;20044;-79
2023/06/20 07:43:05;;;;;;;822.38;770.60;;;21.50;99.90;;;;;;5026868;28;20452;-78
2023/06/20 07:45:31;;;;;;;820.60;769.60;;;21.60;99.90;;;;;;5029587;28;20049;-79
2023/06/20 07:47:57;;;;;;;828.83;776.95;;;21.60;99.90;;;;;;5027928;28;20460;-79
2023/06/20 07:50:22;;;;;;;829.95;778.67;;;21.60;99.90;;;;;;5019594;28;20132;-80
2023/06/20 07:52:48;;;;;;;871.67;815.67;;;21.60;99.90;;;;;;5029261;28;20030;-78
2023/06/20 07:55:14;;;;;;;859.15;804.60;;;21.50;99.90;;;;;;5035976;28;20766;-79
2023/06/20 07:57:39;;;;;;;897.40;835.85;;;21.50;99.90;;;;;;5035672;28;20034;-79
2023/06/20 08:00:09;;;;;;;919.72;857.00;;;21.30;99.90;;;;;;5036620;28;20124;-79
2023/06/20 08:02:34;;;;;;;926.42;862.00;;;21.50;99.90;;;;;;5042761;28;20030;-79
2023/06/20 08:05:00;;;;;;;866.88;801.55;;;21.30;99.90;;;;;;5025059;28;20107;-78
2023/06/20 08:07:27;;;;;;;904.72;836.30;;;21.10;99.90;;;;;;5014269;28;20038;-78
2023/06/20 08:09:53;;;;;;;950.65;881.53;;;21.80;99.90;;;;;;5034388;28;20036;-79
2023/06/20 08:12:18;;;;;;;1634.82;872.65;;;22.20;99.90;;;;;;5012172;28;20034;-79
2023/06/20 08:14:44;;;;;;;506.23;464.63;;;22.70;99.90;;;;;;5053089;28;20094;-79
2023/06/20 08:17:13;;;;;;;1999.90;999.90;;;23.10;99.90;;;;;;5039761;28;20397;-80
2023/06/20 08:19:39;;;;;;;1999.90;999.90;;;23.20;85.10;;;;;;5033496;28;20026;-78
2023/06/20 08:22:05;;;;;;;1999.90;999.90;;;23.80;74.50;;;;;;5036271;28;20045;-78
2023/06/20 08:24:31;;;;;;;1999.90;999.90;;;24.00;70.10;;;;;;5037760;28;20082;-78
2023/06/20 08:26:56;;;;;;;854.85;790.42;;;24.10;68.80;;;;;;5032365;28;20049;-78
2023/06/20 08:29:22;;;;;;;832.75;769.80;;;24.20;68.80;;;;;;5023590;28;20404;-78
2023/06/20 08:31:48;;;;;;;784.65;724.85;;;24.50;66.60;;;;;;5032517;28;20558;-78
2023/06/20 08:34:13;;;;;;;933.67;866.50;;;24.80;66.00;;;;;;5037879;28;20508;-80
2023/06/20 08:36:39;;;;;;;849.78;794.28;;;25.00;64.10;;;;;;5030242;28;20041;-81
2023/06/20 08:39:05;;;;;;;972.53;901.22;;;25.30;63.20;;;;;;5036999;28;20438;-76
2023/06/20 08:41:30;;;;;;;953.03;886.25;;;25.40;63.20;;;;;;5039215;28;20037;-77
2023/06/20 08:43:56;;;;;;;938.63;867.28;;;25.70;60.30;;;;;;5036015;28;20168;-76
2023/06/20 08:46:25;;;;;;;980.00;907.92;;;26.00;60.70;;;;;;5036485;28;20033;-78
2023/06/20 08:48:51;;;;;;;969.05;899.47;;;26.30;59.20;;;;;;5040225;28;20029;-80
2023/06/20 08:51:17;;;;;;;985.55;912.13;;;26.50;60.70;;;;;;5035522;28;20048;-79
2023/06/20 08:53:47;;;;;;;999.08;922.97;;;26.40;58.80;;;;;;5038419;28;20030;-79
2023/06/20 08:56:14;;;;;;;594.78;544.80;;;26.70;60.00;;;;;;5037340;28;20055;-78
2023/06/20 08:58:41;;;;;;;942.95;875.55;;;26.70;58.10;;;;;;5035448;28;20048;-78
2023/06/20 09:01:06;;;;;;;919.33;855.78;;;26.80;53.80;;;;;;5032313;28;20108;-78
2023/06/20 09:03:32;;;;;;;965.45;895.55;;;26.90;56.20;;;;;;5030212;28;20167;-79
2023/06/20 09:05:58;;;;;;;967.53;897.83;;;27.00;56.30;;;;;;5025444;28;20030;-77
2023/06/20 09:08:32;;;;;;;1999.90;999.90;;;27.10;54.00;;;;;;5027487;28;20040;-78
2023/06/20 09:11:05;;;;;;;1999.90;999.90;;;27.30;53.00;;;;;;5028858;28;20017;-78
2023/06/20 09:13:31;;;;;;;1999.90;999.90;;;27.20;48.80;;;;;;5029054;28;20431;-76
2023/06/20 09:16:05;;;;;;;1999.90;999.90;;;27.40;49.90;;;;;;5027911;28;20159;-77
2023/06/20 09:18:33;;;;;;;1999.90;999.90;;;27.60;49.90;;;;;;5030623;28;20017;-77
2023/06/20 09:20:58;;;;;;;1999.90;999.90;;;27.70;48.20;;;;;;5030056;28;20040;-77
2023/06/20 09:23:29;;;;;;;1999.90;999.90;;;27.70;46.70;;;;;;5026006;28;20033;-77
2023/06/20 09:25:56;;;;;;;1999.90;999.90;;;27.80;48.30;;;;;;5037712;28;20025;-77
2023/06/20 09:28:22;;;;;;;1999.90;999.90;;;27.70;46.40;;;;;;5014236;28;20057;-76
2023/06/20 09:30:48;;;;;;;1999.90;999.90;;;27.90;45.30;;;;;;5030657;28;20064;-83
2023/06/20 09:33:15;;;;;;;1999.90;999.90;;;28.20;46.50;;;;;;5033948;28;20705;-76
2023/06/20 09:35:41;;;;;;;1999.90;999.90;;;28.30;44.70;;;;;;5028904;28;20040;-78
2023/06/20 09:38:08;;;;;;;1999.90;999.90;;;28.30;43.90;;;;;;5033426;28;20041;-78
2023/06/20 09:40:45;;;;;;;1999.90;999.90;;;29.00;47.30;;;;;;5029087;28;20140;-79
2023/06/20 09:43:10;;;;;;;1999.90;999.90;;;29.10;47.10;;;;;;5027191;28;20029;-86
2023/06/20 09:45:36;;;;;;;1999.90;999.90;;;29.20;41.10;;;;;;5017646;28;20025;-78
2023/06/20 09:48:03;;;;;;;1999.90;999.90;;;29.20;43.00;;;;;;5015166;28;20557;-78
2023/06/20 09:50:31;;;;;;;1999.90;999.90;;;29.10;40.80;;;;;;5029089;28;20054;-78
2023/06/20 09:53:16;;;;;;;1999.90;999.90;;;29.00;44.00;;;;;;5029977;28;20186;-81
2023/06/20 09:55:42;;;;;;;1999.90;999.90;;;29.40;41.10;;;;;;5029892;28;20425;-80
2023/06/20 09:58:10;;;;;;;1999.90;999.90;;;29.60;40.00;;;;;;5032830;28;20557;-80
2023/06/20 10:00:36;;;;;;;1999.90;999.90;;;29.80;39.20;;;;;;5027744;28;20086;-78
2023/06/20 10:03:09;;;;;;;1999.90;999.90;;;29.70;37.10;;;;;;5030695;28;20447;-80
2023/06/20 10:05:36;;;;;;;1999.90;999.90;;;29.70;36.50;;;;;;5035965;28;20037;-79
2023/06/20 10:08:02;;;;;;;1999.90;999.90;;;30.00;38.40;;;;;;5029927;28;20029;-79
2023/06/20 10:10:27;;;;;;;1999.90;999.90;;;29.80;42.30;;;;;;5015141;28;20848;-81
2023/06/20 10:12:55;;;;;;;1999.90;999.90;;;30.00;37.20;;;;;;5037853;28;20151;-79
2023/06/20 10:15:21;;;;;;;1999.90;999.90;;;30.30;37.60;;;;;;5012525;28;20498;-88
2023/06/20 10:17:47;;;;;;;1999.90;999.90;;;31.00;37.50;;;;;;5013451;28;20091;-83
2023/06/20 10:20:37;;;;;;;1999.90;999.90;;;30.60;37.40;;;;;;5032772;28;20496;-80
2023/06/20 10:23:05;;;;;;;1999.90;999.90;;;30.80;35.60;;;;;;5032678;28;20377;-79
2023/06/20 10:25:32;;;;;;;1999.90;999.90;;;31.00;35.30;;;;;;5032295;28;20124;-81
2023/06/20 10:27:58;;;;;;;1999.90;999.90;;;30.90;33.10;;;;;;5017330;28;20512;-79
2023/06/20 10:30:47;;;;;;;1999.90;999.90;;;31.00;32.10;;;;;;5029943;28;20115;-80
2023/06/20 10:33:13;;;;;;;1999.90;999.90;;;31.20;31.70;;;;;;5043423;28;20060;-78
2023/06/20 10:35:48;;;;;;;1999.90;999.90;;;31.00;34.20;;;;;;5032465;28;20108;-79
2023/06/20 10:38:13;;;;;;;1999.90;999.90;;;31.10;33.50;;;;;;5032950;28;20029;-81
2023/06/20 10:40:39;;;;;;;1999.90;999.90;;;31.20;37.30;;;;;;5030550;28;20042;-82
2023/06/20 10:43:14;;;;;;;1999.90;999.90;;;31.20;32.70;;;;;;5032568;28;20061;-84
2023/06/20 10:45:52;;;;;;;1999.90;999.90;;;31.50;35.10;;;;;;5030986;28;20031;-82
2023/06/20 10:48:18;;;;;;;1999.90;999.90;;;31.30;31.40;;;;;;5029819;28;20025;-82
2023/06/20 10:50:44;;;;;;;1999.90;999.90;;;31.50;30.90;;;;;;5011637;28;20041;-84
2023/06/20 10:53:10;;;;;;;1999.90;999.90;;;31.80;32.00;;;;;;5023388;28;20045;-81
2023/06/20 10:55:38;;;;;;;1999.90;999.90;;;31.80;33.10;;;;;;5027859;28;20064;-83
2023/06/20 10:58:04;;;;;;;1999.90;999.90;;;32.20;30.10;;;;;;5029395;28;20029;-82
2023/06/20 11:00:29;;;;;;;1999.90;999.90;;;32.20;32.70;;;;;;5027551;28;20045;-82
2023/06/20 11:02:55;;;;;;;1999.90;999.90;;;32.80;30.60;;;;;;5033534;28;20040;-80
2023/06/20 11:05:28;;;;;;;1999.90;999.90;;;32.60;27.80;;;;;;5036036;28;20076;-80
2023/06/20 11:07:59;;;;;;;1999.90;999.90;;;32.60;30.50;;;;;;5030122;28;20036;-83
2023/06/20 11:10:34;;;;;;;1999.90;999.90;;;33.20;26.80;;;;;;5016811;28;20033;-80
2023/06/20 11:13:04;;;;;;;1999.90;999.90;;;33.90;25.90;;;;;;5030316;28;20029;-79
2023/06/20 11:15:34;;;;;;;1999.90;999.90;;;33.70;26.00;;;;;;5029449;28;20084;-84
2023/06/20 11:18:07;;;;;;;1999.90;999.90;;;33.00;26.00;;;;;;5019046;28;20036;-82
2023/06/20 11:20:39;;;;;;;1999.90;999.90;;;33.30;25.20;;;;;;5025780;28;20032;-81
2023/06/20 11:23:06;;;;;;;1999.90;999.90;;;34.60;24.30;;;;;;5038728;28;20113;-81
2023/06/20 11:25:34;;;;;;;1999.90;999.90;;;34.90;25.90;;;;;;5032996;28;20051;-81
2023/06/20 11:28:14;;;;;;;1999.90;999.90;;;34.30;27.00;;;;;;5030444;28;20508;-80
2023/06/20 11:30:47;;;;;;;1999.90;999.90;;;34.00;25.70;;;;;;5031686;28;20043;-81
2023/06/20 11:33:13;;;;;;;1999.90;999.90;;;34.30;25.20;;;;;;5029504;28;20434;-82
2023/06/20 11:35:54;;;;;;;1999.90;999.90;;;35.00;24.20;;;;;;5032134;28;20021;-82
2023/06/20 11:38:21;;;;;;;1999.90;999.90;;;35.10;24.30;;;;;;5032689;28;20034;-81
2023/06/20 11:40:58;;;;;;;1999.90;999.90;;;35.30;24.20;;;;;;5032289;28;20029;-82
2023/06/20 11:43:27;;;;;;;1999.90;999.90;;;34.70;25.60;;;;;;5042161;28;20408;-82
2023/06/20 11:45:58;;;;;;;1999.90;999.90;;;33.90;25.00;;;;;;5029001;28;20088;-81
2023/06/20 11:48:24;;;;;;;1999.90;999.90;;;34.30;27.10;;;;;;5036094;28;20037;-81
2023/06/20 11:51:02;;;;;;;1999.90;999.90;;;35.00;24.80;;;;;;5035634;28;20155;-80
2023/06/20 11:53:37;;;;;;;1999.90;999.90;;;34.50;25.80;;;;;;5031471;28;20033;-82
2023/06/20 11:56:06;;;;;;;1999.90;999.90;;;35.00;26.50;;;;;;5020428;28;20032;-86
2023/06/20 11:58:41;;;;;;;1999.90;999.90;;;34.00;25.30;;;;;;5019342;28;21287;-80
2023/06/20 12:01:10;;;;;;;1999.90;999.90;;;34.20;25.50;;;;;;5042064;28;20043;-88
2023/06/20 12:03:38;;;;;;;1999.90;999.90;;;34.90;24.70;;;;;;5041480;28;20029;-85
2023/06/20 12:06:27;;;;;;;1999.90;999.90;;;35.60;23.00;;;;;;5035078;28;20143;-83
2023/06/20 12:08:57;;;;;;;1999.90;999.90;;;34.80;24.20;;;;;;5038726;28;20025;-86